Time;durP1;ratioP1;P1;durP2;ratioP2;P2;SDS_P1;SDS_P2;PMS_P1;PMS_P2;Temp;Humidity;BMP_temperature;BMP_pressure;BME280_temperature;BME280_humidity;BME280_pressure;Samples;Min_cycle;Max_cycle;Signal;HPM_P1;HPM_P2
2021/05/31 00:01:59;;;;;;;;;;;;;;;10.51;82.00;99158.89;1783394;80;20108;-86
2021/05/31 00:04:26;;;;;;;;;;;;;;;10.45;82.93;99151.24;1783226;78;20109;-87
2021/05/31 00:07:04;;;;;;;;;;;;;;;10.39;82.67;99153.98;1783002;78;20220;-85
2021/05/31 00:09:33;;;;;;;;;;;;;;;10.31;76.75;99152.02;1782967;81;20096;-85
2021/05/31 00:12:00;;;;;;;;;;;;;;;10.24;81.00;99149.11;1776201;80;20128;-84
2021/05/31 00:14:27;;;;;;;;;;;;;;;10.20;82.42;99145.72;1774577;81;20144;-85
2021/05/31 00:16:53;;;;;;;;;;;;;;;10.19;82.89;99147.08;1746443;81;20122;-85
2021/05/31 00:19:20;;;;;;;;;;;;;;;10.16;82.29;99142.33;1744152;81;20150;-86
2021/05/31 00:21:47;;;;;;;;;;;;;;;10.14;81.18;99141.51;1768315;81;20167;-85
2021/05/31 00:24:13;;;;;;;;;;;;;;;10.12;83.71;99134.20;1763901;81;20543;-83
2021/05/31 00:26:39;;;;;;;;;;;;;;;10.10;83.07;99136.42;1763820;81;20219;-85
2021/05/31 00:29:06;;;;;;;;;;;;;;;10.08;83.37;99140.34;1745641;81;20191;-89
2021/05/31 00:31:33;;;;;;;;;;;;;;;10.05;82.34;99140.44;1760891;79;20145;-85
2021/05/31 00:33:59;;;;;;;;;;;;;;;10.02;79.22;99146.14;1772099;81;20146;-86
2021/05/31 00:36:27;;;;;;;;;;;;;;;9.96;81.42;99139.33;1769741;81;20124;-85
2021/05/31 00:38:53;;;;;;;;;;;;;;;9.95;79.86;99142.38;1755689;80;20164;-84
2021/05/31 00:41:21;;;;;;;;;;;;;;;9.95;82.45;99134.59;1703348;83;20212;-84
2021/05/31 00:43:48;;;;;;;;;;;;;;;9.96;81.30;99140.63;1767131;80;20175;-88
2021/05/31 00:46:14;;;;;;;;;;;;;;;9.97;83.16;99139.75;1711172;80;20293;-90
2021/05/31 00:48:41;;;;;;;;;;;;;;;9.96;84.01;99147.13;1694257;84;20206;-87
2021/05/31 00:51:10;;;;;;;;;;;;;;;9.95;83.99;99142.38;1757446;80;20207;-88
2021/05/31 00:53:37;;;;;;;;;;;;;;;9.79;84.06;99112.45;1709105;80;20240;-90
2021/05/31 00:56:04;;;;;;;;;;;;;;;9.98;82.92;99144.05;1737289;80;20212;-86
2021/05/31 00:58:30;;;;;;;;;;;;;;;9.99;82.85;99140.58;1757987;80;20204;-84
2021/05/31 01:01:01;;;;;;;;;;;;;;;10.02;81.36;99144.84;1745454;78;20191;-85
2021/05/31 01:03:27;;;;;;;;;;;;;;;10.03;81.57;99137.02;1709113;83;20137;-86
2021/05/31 01:05:57;;;;;;;;;;;;;;;10.03;83.61;99141.37;1716530;81;20143;-88
2021/05/31 01:08:30;;;;;;;;;;;;;;;10.04;83.28;99137.86;1734426;80;20168;31
2021/05/31 01:11:09;;;;;;;;;;;;;;;10.06;83.38;99132.19;1732482;82;20183;-88
2021/05/31 01:13:42;;;;;;;;;;;;;;;10.07;84.00;99137.36;1761243;82;20160;-83
2021/05/31 01:16:33;;;;;;;;;;;;;;;10.10;83.38;99139.02;1761019;80;20205;-84
2021/05/31 01:19:03;;;;;;;;;;;;;;;10.12;83.64;99142.44;1675811;84;20179;-90
2021/05/31 01:21:42;;;;;;;;;;;;;;;10.07;84.77;99131.31;1698202;81;20941;-90
2021/05/31 01:24:34;;;;;;;;;;;;;;;10.03;84.13;99130.98;1671062;85;20198;-88
2021/05/31 01:27:31;;;;;;;;;;;;;;;10.00;81.36;99124.54;1713529;82;20567;-87
2021/05/31 01:30:01;;;;;;;;;;;;;;;9.92;82.86;99128.59;1755646;79;20154;-85
2021/05/31 01:32:36;;;;;;;;;;;;;;;9.85;82.29;99123.99;1785627;79;20093;-86
2021/05/31 01:35:06;;;;;;;;;;;;;;;9.79;81.86;99123.25;1769085;79;20160;-87
2021/05/31 01:37:34;;;;;;;;;;;;;;;9.70;81.31;99119.13;1738206;80;20190;-86
2021/05/31 01:40:04;;;;;;;;;;;;;;;9.63;82.19;99124.89;1774915;79;20219;-88
2021/05/31 01:42:30;;;;;;;;;;;;;;;9.57;83.74;99126.33;1739652;77;20222;-86
2021/05/31 01:44:58;;;;;;;;;;;;;;;9.53;83.92;99124.67;1738147;82;20112;-84
2021/05/31 01:47:25;;;;;;;;;;;;;;;9.46;82.25;99120.48;1730216;82;20168;-87
2021/05/31 01:49:51;;;;;;;;;;;;;;;9.42;80.71;99124.87;1673881;82;20217;-85
2021/05/31 01:52:18;;;;;;;;;;;;;;;9.39;82.32;99125.37;1717175;82;20179;-84
2021/05/31 01:54:45;;;;;;;;;;;;;;;9.34;82.58;99121.58;1666825;83;20166;-87
2021/05/31 01:57:11;;;;;;;;;;;;;;;9.31;81.67;99125.10;1680821;85;20185;-88
2021/05/31 01:59:38;;;;;;;;;;;;;;;9.30;87.16;99123.83;1728378;80;20197;-87
2021/05/31 02:02:05;;;;;;;;;;;;;;;9.28;83.13;99122.55;1727823;80;20518;-88
2021/05/31 02:04:31;;;;;;;;;;;;;;;9.26;82.81;99117.84;1762713;80;20240;-85
2021/05/31 02:06:57;;;;;;;;;;;;;;;9.26;85.52;99123.47;1760113;80;20201;-87
2021/05/31 02:09:24;;;;;;;;;;;;;;;9.26;85.55;99115.69;1761518;80;20193;-88
2021/05/31 02:12:07;;;;;;;;;;;;;;;9.26;84.64;99120.88;1757817;81;20192;-89
2021/05/31 02:14:48;;;;;;;;;;;;;;;9.22;84.99;99116.64;1786162;78;20209;-86
2021/05/31 02:17:29;;;;;;;;;;;;;;;9.21;83.92;99122.70;1831361;78;20158;-84
2021/05/31 02:19:59;;;;;;;;;;;;;;;9.22;83.14;99121.83;1832622;78;20115;-85
2021/05/31 02:22:26;;;;;;;;;;;;;;;9.19;84.69;99125.76;1791834;77;20186;-88
2021/05/31 02:24:55;;;;;;;;;;;;;;;9.18;84.01;99126.21;1769379;80;20515;-87
2021/05/31 02:27:21;;;;;;;;;;;;;;;9.21;84.23;99127.47;1727074;81;20150;-88
2021/05/31 02:29:48;;;;;;;;;;;;;;;9.18;85.50;99121.02;1725357;83;20167;-83
2021/05/31 02:32:14;;;;;;;;;;;;;;;9.20;85.15;99127.48;1718831;83;20268;-90
2021/05/31 02:34:40;;;;;;;;;;;;;;;9.22;85.13;99121.83;1725346;83;20204;-85
2021/05/31 02:37:12;;;;;;;;;;;;;;;9.21;85.27;99118.38;1716538;83;20211;-88
2021/05/31 02:39:38;;;;;;;;;;;;;;;9.15;85.92;99119.35;1717051;81;20190;-84
2021/05/31 02:42:05;;;;;;;;;;;;;;;9.04;85.36;99118.69;1723551;81;20198;-85
2021/05/31 02:44:32;;;;;;;;;;;;;;;8.98;84.46;99119.25;1730225;82;20190;-86
2021/05/31 02:46:58;;;;;;;;;;;;;;;8.92;85.39;99118.91;1714379;80;20185;-88
2021/05/31 02:49:24;;;;;;;;;;;;;;;8.89;85.46;99121.55;1727479;82;20199;-86
2021/05/31 02:51:50;;;;;;;;;;;;;;;8.86;85.77;99124.21;1721685;83;20238;-85
2021/05/31 02:54:17;;;;;;;;;;;;;;;8.82;85.64;99124.70;1733093;81;20961;-85
2021/05/31 02:56:43;;;;;;;;;;;;;;;8.79;85.41;99128.62;1726736;81;20179;-87
2021/05/31 02:59:09;;;;;;;;;;;;;;;8.76;85.82;99130.84;1727910;81;20183;-85
2021/05/31 03:01:35;;;;;;;;;;;;;;;8.74;85.11;99130.46;1717804;82;20192;-85
2021/05/31 03:04:03;;;;;;;;;;;;;;;8.70;83.54;99132.69;1748669;82;20192;-84
2021/05/31 03:06:29;;;;;;;;;;;;;;;8.67;86.29;99128.84;1733424;80;20104;-85
2021/05/31 03:08:55;;;;;;;;;;;;;;;8.66;87.18;99134.92;1733405;80;20172;-85
2021/05/31 03:11:21;;;;;;;;;;;;;;;8.63;86.14;99129.33;1716878;80;20114;-85
2021/05/31 03:13:47;;;;;;;;;;;;;;;8.61;86.69;99127.20;1713540;83;20195;-85
2021/05/31 03:16:14;;;;;;;;;;;;;;;8.60;87.39;99129.84;1733489;81;20123;-85
2021/05/31 03:18:40;;;;;;;;;;;;;;;8.56;88.59;99127.29;1753582;81;20144;-85
2021/05/31 03:21:06;;;;;;;;;;;;;;;8.56;88.71;99134.22;1733427;83;20116;-85
2021/05/31 03:23:32;;;;;;;;;;;;;;;8.55;88.25;99134.66;1734897;79;20197;-88
2021/05/31 03:25:58;;;;;;;;;;;;;;;8.56;88.56;99129.03;1726600;81;20708;-89
2021/05/31 03:28:25;;;;;;;;;;;;;;;8.58;87.93;99126.42;1725058;82;20186;-85
2021/05/31 03:30:51;;;;;;;;;;;;;;;8.59;88.27;99122.48;1729111;82;20202;-85
2021/05/31 03:33:17;;;;;;;;;;;;;;;8.61;88.67;99126.36;1728614;82;20210;-85
2021/05/31 03:35:44;;;;;;;;;;;;;;;8.62;89.83;99125.49;1723309;81;20182;-88
2021/05/31 03:38:10;;;;;;;;;;;;;;;8.65;88.46;99121.09;1700052;82;20169;-87
2021/05/31 03:40:36;;;;;;;;;;;;;;;8.67;90.62;99117.18;1728882;82;20573;-88
2021/05/31 03:43:02;;;;;;;;;;;;;;;8.69;86.80;99116.71;1724114;82;20211;-87
2021/05/31 03:45:29;;;;;;;;;;;;;;;8.71;88.30;99115.83;1733229;81;20184;-82
2021/05/31 03:47:55;;;;;;;;;;;;;;;8.73;86.31;99117.07;1728727;82;20146;-85
2021/05/31 03:50:21;;;;;;;;;;;;;;;8.75;84.80;99115.31;1734457;80;20168;-85
2021/05/31 03:52:49;;;;;;;;;;;;;;;8.78;85.44;99119.16;1745846;79;20138;-83
2021/05/31 03:55:16;;;;;;;;;;;;;;;8.82;85.74;99124.70;1758094;80;20201;-88
2021/05/31 03:57:42;;;;;;;;;;;;;;;8.90;88.86;99126.72;1756177;80;20232;-85
2021/05/31 04:00:10;;;;;;;;;;;;;;;8.95;87.69;99124.91;1764940;81;20168;-86
2021/05/31 04:02:38;;;;;;;;;;;;;;;9.03;88.32;99124.77;1727926;81;20192;-88
2021/05/31 04:05:06;;;;;;;;;;;;;;;9.11;87.24;99127.20;1704614;81;20170;-84
2021/05/31 04:13:01;;;;;;;;;;;;;;;9.32;86.84;99127.24;1602097;87;20206;-86
2021/05/31 04:15:40;;;;;;;;;;;;;;;9.40;86.97;99117.56;1602590;87;20166;-83
2021/05/31 04:18:07;;;;;;;;;;;;;;;9.49;84.76;99123.87;1602593;83;20221;-84
2021/05/31 04:20:33;;;;;;;;;;;;;;;9.56;86.49;99126.74;1625052;83;20179;-87
2021/05/31 04:23:00;;;;;;;;;;;;;;;9.61;86.35;99129.27;1688482;83;20168;-85
2021/05/31 04:25:26;;;;;;;;;;;;;;;9.70;85.00;99126.45;1691223;83;20205;-85
2021/05/31 04:27:52;;;;;;;;;;;;;;;9.77;85.49;99137.59;1679749;85;20193;-88
2021/05/31 04:30:19;;;;;;;;;;;;;;;9.86;85.41;99128.28;1690402;83;20215;-87
2021/05/31 04:32:46;;;;;;;;;;;;;;;9.93;85.22;99131.17;1692206;83;20200;-86
2021/05/31 04:35:12;;;;;;;;;;;;;;;10.04;82.54;99133.52;1695900;82;20206;-85
2021/05/31 04:37:38;;;;;;;;;;;;;;;10.03;82.59;99130.52;1700688;81;20174;-85
2021/05/31 04:40:06;;;;;;;;;;;;;;;10.05;83.54;99128.75;1701492;81;20140;-85
2021/05/31 04:42:32;;;;;;;;;;;;;;;10.10;83.03;99126.88;1715649;78;20109;-85
2021/05/31 04:44:58;;;;;;;;;;;;;;;10.16;82.75;99126.73;1704389;82;20151;-85
2021/05/31 04:47:25;;;;;;;;;;;;;;;10.22;81.50;99124.45;1695964;82;20183;-85
2021/05/31 04:49:52;;;;;;;;;;;;;;;10.25;82.01;99118.35;1700940;83;20234;-84
2021/05/31 04:52:21;;;;;;;;;;;;;;;10.29;81.70;99114.79;1693741;79;20128;-84
2021/05/31 04:54:48;;;;;;;;;;;;;;;10.33;82.13;99112.10;1706821;79;20234;-85
2021/05/31 04:57:15;;;;;;;;;;;;;;;10.42;81.37;99112.31;1734998;83;20106;-83
2021/05/31 04:59:41;;;;;;;;;;;;;;;10.52;81.21;99122.05;1733524;79;20144;-85
2021/05/31 05:02:08;;;;;;;;;;;;;;;10.61;81.14;99113.19;1734745;83;20161;-85
2021/05/31 05:04:34;;;;;;;;;;;;;;;10.75;81.44;99110.63;1733719;80;20169;-89
2021/05/31 05:07:00;;;;;;;;;;;;;;;10.89;80.08;99110.73;1775140;80;20183;-87
2021/05/31 05:09:26;;;;;;;;;;;;;;;11.02;80.28;99107.34;1729722;81;20191;-85
2021/05/31 05:11:53;;;;;;;;;;;;;;;11.10;80.13;99104.97;1734943;81;20190;-87
2021/05/31 05:14:19;;;;;;;;;;;;;;;11.24;79.79;99111.09;1757779;81;20199;-86
2021/05/31 05:16:45;;;;;;;;;;;;;;;11.40;79.84;99098.93;1754091;80;20208;-85
2021/05/31 05:19:11;;;;;;;;;;;;;;;11.54;79.38;99090.30;1779085;80;20182;-84
2021/05/31 05:21:37;;;;;;;;;;;;;;;11.65;78.21;99096.02;1769012;80;20621;-87
2021/05/31 05:24:04;;;;;;;;;;;;;;;11.72;76.95;99094.11;1784106;80;20227;-86
2021/05/31 05:26:31;;;;;;;;;;;;;;;11.74;76.92;99094.46;1764860;81;20187;-88
2021/05/31 05:28:57;;;;;;;;;;;;;;;11.80;76.86;99089.95;1761645;79;20176;-85
2021/05/31 05:31:23;;;;;;;;;;;;;;;11.84;76.93;99091.59;1766208;80;21099;-84
2021/05/31 05:33:49;;;;;;;;;;;;;;;11.89;76.54;99094.47;1764235;81;20179;-86
2021/05/31 05:46:48;;;;;;;;;;;;;;;12.10;75.03;99092.13;1768548;81;20166;-84
2021/05/31 05:49:12;;;;;;;;;;;;;;;12.15;74.92;99096.72;1758703;81;20194;-84
2021/05/31 05:51:38;;;;;;;;;;;;;;;12.17;73.93;99094.08;1758447;80;20316;-82
2021/05/31 05:54:05;;;;;;;;;;;;;;;12.18;73.12;99088.82;1770465;80;20525;-89
2021/05/31 05:56:32;;;;;;;;;;;;;;;12.18;73.06;99089.28;1744084;81;20546;-82
2021/05/31 05:58:59;;;;;;;;;;;;;;;12.18;73.34;99085.38;1771245;81;21303;-83
2021/05/31 06:01:26;;;;;;;;;;;;;;;12.24;74.11;99088.63;1773795;80;20253;-82
2021/05/31 06:03:53;;;;;;;;;;;;;;;12.29;75.23;99086.70;1771595;80;20203;-82
2021/05/31 06:06:21;;;;;;;;;;;;;;;12.36;75.06;99080.86;1799446;78;20174;-81
2021/05/31 06:08:48;;;;;;;;;;;;;;;12.43;74.90;99078.43;1826529;78;20156;-81
2021/05/31 06:11:15;;;;;;;;;;;;;;;12.51;74.82;99072.54;1828968;77;20255;-81
2021/05/31 06:13:42;;;;;;;;;;;;;;;12.63;75.03;99075.62;1827779;77;20799;-80
2021/05/31 06:16:11;;;;;;;;;;;;;;;12.69;72.73;99072.80;1814628;77;20256;-81
2021/05/31 06:18:38;;;;;;;;;;;;;;;12.80;74.30;99073.30;1826791;78;20206;-81
2021/05/31 06:21:05;;;;;;;;;;;;;;;12.93;74.47;99066.75;1815045;79;20991;-82
2021/05/31 06:23:32;;;;;;;;;;;;;;;13.08;73.97;99062.73;1815239;77;20198;-81
2021/05/31 06:25:58;;;;;;;;;;;;;;;13.19;73.89;99061.06;1818502;77;20627;-84
2021/05/31 06:28:24;;;;;;;;;;;;;;;13.31;73.44;99071.55;1823951;78;20185;-84
2021/05/31 06:30:51;;;;;;;;;;;;;;;13.36;73.00;99063.53;1820400;77;20204;-82
2021/05/31 06:33:18;;;;;;;;;;;;;;;13.47;72.55;99067.91;1817669;77;20226;-85
2021/05/31 06:35:46;;;;;;;;;;;;;;;13.58;72.35;99068.80;1824361;78;20202;-83
2021/05/31 06:38:13;;;;;;;;;;;;;;;13.67;70.51;99066.70;1835420;77;20168;-85
2021/05/31 06:40:39;;;;;;;;;;;;;;;13.66;71.06;99053.69;1830538;77;20182;-82
2021/05/31 06:43:06;;;;;;;;;;;;;;;13.85;71.31;99064.30;1830507;77;20230;-90
2021/05/31 06:45:33;;;;;;;;;;;;;;;13.95;71.56;99062.14;1796302;78;20195;-87
2021/05/31 06:48:01;;;;;;;;;;;;;;;13.97;71.11;99061.66;1743615;81;20188;-86
2021/05/31 06:50:29;;;;;;;;;;;;;;;14.09;71.79;99061.16;1752012;80;20197;-91
2021/05/31 06:52:56;;;;;;;;;;;;;;;14.25;71.39;99062.70;1769923;80;20569;-85
2021/05/31 06:55:24;;;;;;;;;;;;;;;14.27;70.29;99071.34;1768171;81;20183;-87
2021/05/31 06:57:54;;;;;;;;;;;;;;;14.41;70.25;99066.85;1772520;80;20126;-87
2021/05/31 07:00:23;;;;;;;;;;;;;;;14.45;69.99;99065.34;1771640;80;20133;-87
2021/05/31 07:02:50;;;;;;;;;;;;;;;14.47;69.79;99069.21;1734060;81;20170;-88
2021/05/31 07:05:17;;;;;;;;;;;;;;;14.54;69.99;99064.09;1734700;80;20235;-93
2021/05/31 07:07:44;;;;;;;;;;;;;;;14.58;68.24;99061.78;1784524;80;20304;-84
2021/05/31 07:10:14;;;;;;;;;;;;;;;14.66;69.22;99061.45;1782283;79;20187;-81
2021/05/31 07:12:41;;;;;;;;;;;;;;;14.72;69.59;99054.66;1778277;80;20187;-83
2021/05/31 07:15:11;;;;;;;;;;;;;;;14.81;68.47;99054.73;1781945;80;20198;-84
2021/05/31 07:17:38;;;;;;;;;;;;;;;14.90;67.40;99053.88;1783436;80;20218;-82
2021/05/31 07:20:10;;;;;;;;;;;;;;;15.00;68.37;99050.41;1775801;80;20222;-84
2021/05/31 07:22:37;;;;;;;;;;;;;;;15.07;66.18;99050.52;1781144;80;20175;-83
2021/05/31 07:25:05;;;;;;;;;;;;;;;15.19;66.81;99043.04;1784444;80;20685;-82
2021/05/31 07:27:31;;;;;;;;;;;;;;;15.25;65.78;99038.36;1778476;80;20164;-81
2021/05/31 07:29:58;;;;;;;;;;;;;;;15.25;64.96;99040.98;1782122;80;20211;-81
2021/05/31 07:32:24;;;;;;;;;;;;;;;15.22;64.55;99026.73;1770703;80;20205;-81
2021/05/31 07:34:51;;;;;;;;;;;;;;;15.24;64.61;99030.56;1783305;79;20202;-83
2021/05/31 07:37:17;;;;;;;;;;;;;;;15.29;64.02;99030.76;1779553;80;20175;-85
2021/05/31 07:39:44;;;;;;;;;;;;;;;15.42;64.51;99024.52;1781848;80;20155;-82
2021/05/31 07:42:11;;;;;;;;;;;;;;;15.57;64.57;99020.79;1784212;80;20163;-82
2021/05/31 07:44:37;;;;;;;;;;;;;;;15.80;65.57;99017.13;1783723;80;20226;-82
2021/05/31 07:47:04;;;;;;;;;;;;;;;16.05;65.80;99016.30;1782409;80;20246;-83
2021/05/31 07:49:30;;;;;;;;;;;;;;;16.28;61.79;99019.12;1786188;79;20214;-81
2021/05/31 07:52:06;;;;;;;;;;;;;;;16.48;64.66;99006.31;1781732;80;20168;-87
2021/05/31 07:54:25;;;;;;;;;;;;;;;16.68;63.79;99011.02;1778469;80;20170;-86
2021/05/31 07:56:51;;;;;;;;;;;;;;;16.94;62.86;99007.53;1766477;79;20223;-81
2021/05/31 07:59:18;;;;;;;;;;;;;;;17.16;62.85;99005.92;1785235;80;20183;-85
2021/05/31 08:01:45;;;;;;;;;;;;;;;17.25;58.42;99010.22;1786598;80;20213;-82
2021/05/31 08:04:12;;;;;;;;;;;;;;;17.39;61.81;99011.23;1787149;79;20242;-87
2021/05/31 08:06:39;;;;;;;;;;;;;;;17.52;59.92;99017.53;1765627;80;20249;-84
2021/05/31 08:09:06;;;;;;;;;;;;;;;17.60;58.83;99011.38;1789761;80;20219;-85
2021/05/31 08:11:33;;;;;;;;;;;;;;;17.63;56.70;99011.22;1793262;80;20135;-83
2021/05/31 08:13:59;;;;;;;;;;;;;;;17.64;56.62;99004.17;1782103;80;20107;-85
2021/05/31 08:16:29;;;;;;;;;;;;;;;17.68;60.42;99007.02;1799102;78;20642;-85
2021/05/31 08:18:56;;;;;;;;;;;;;;;17.66;56.69;99008.88;1798303;78;20166;-85
2021/05/31 08:21:23;;;;;;;;;;;;;;;17.54;56.07;99009.56;1784481;80;20238;-82
2021/05/31 08:23:50;;;;;;;;;;;;;;;17.47;56.51;98999.86;1802273;78;20227;-84
2021/05/31 08:26:19;;;;;;;;;;;;;;;17.47;58.57;98998.08;1797499;78;20194;-82
2021/05/31 08:28:44;;;;;;;;;;;;;;;17.51;56.55;98992.19;1798316;78;20169;-83
2021/05/31 08:31:11;;;;;;;;;;;;;;;17.72;59.47;98999.33;1800868;78;20926;-86
2021/05/31 08:33:37;;;;;;;;;;;;;;;17.90;58.33;98992.22;1798177;78;20262;-84
2021/05/31 08:36:05;;;;;;;;;;;;;;;18.10;55.82;98996.34;1802796;78;20234;-82
2021/05/31 08:38:32;;;;;;;;;;;;;;;18.14;55.90;98989.13;1795557;78;20197;-83
2021/05/31 08:40:59;;;;;;;;;;;;;;;18.43;56.11;98986.95;1811486;78;20177;-82
2021/05/31 08:43:25;;;;;;;;;;;;;;;18.62;55.74;98980.14;1793498;79;20189;-84
2021/05/31 08:45:51;;;;;;;;;;;;;;;18.63;54.42;98978.34;1792566;78;20206;-81
2021/05/31 08:48:18;;;;;;;;;;;;;;;18.85;53.43;98981.88;1799268;78;20157;-85
2021/05/31 08:50:44;;;;;;;;;;;;;;;19.04;50.81;98976.34;1799803;78;20171;-85
2021/05/31 08:53:10;;;;;;;;;;;;;;;18.83;55.00;98957.41;1802363;78;20204;-88
2021/05/31 08:55:37;;;;;;;;;;;;;;;18.92;53.89;98969.16;1796032;78;20661;-84
2021/05/31 08:58:04;;;;;;;;;;;;;;;18.67;53.51;98972.80;1779019;78;20203;-87
2021/05/31 09:00:33;;;;;;;;;;;;;;;18.58;53.95;98965.91;1808529;78;20159;-85
2021/05/31 09:03:01;;;;;;;;;;;;;;;18.53;53.37;98963.56;1797820;79;20137;-87
2021/05/31 09:05:41;;;;;;;;;;;;;;;18.76;53.90;98962.64;1793008;79;20166;-85
2021/05/31 09:08:10;;;;;;;;;;;;;;;19.03;52.35;98957.50;1795658;80;20173;-84
2021/05/31 09:10:53;;;;;;;;;;;;;;;19.20;54.13;98946.77;1784100;78;20264;-86
2021/05/31 09:13:36;;;;;;;;;;;;;;;19.50;52.66;98944.44;1798388;80;20172;-84
2021/05/31 09:16:18;;;;;;;;;;;;;;;19.72;53.63;98943.92;1781264;78;20154;-86
2021/05/31 09:19:06;;;;;;;;;;;;;;;19.82;50.46;98937.58;1786880;79;20176;-87
2021/05/31 09:21:34;;;;;;;;;;;;;;;19.85;47.23;98936.04;1805135;78;20145;-85
2021/05/31 09:24:06;;;;;;;;;;;;;;;19.86;51.03;98931.99;1802473;78;20230;-83
2021/05/31 09:26:52;;;;;;;;;;;;;;;19.99;49.10;98937.77;1791789;78;20170;-87
2021/05/31 09:29:20;;;;;;;;;;;;;;;20.11;51.74;98932.15;1796343;78;20147;-88
2021/05/31 09:31:58;;;;;;;;;;;;;;;20.14;48.86;98935.92;1791385;78;20161;-84
2021/05/31 09:34:24;;;;;;;;;;;;;;;20.09;46.88;98936.69;1748280;80;20529;-88
2021/05/31 09:37:00;;;;;;;;;;;;;;;20.21;47.27;98932.77;1760308;80;20156;-85
2021/05/31 09:39:31;;;;;;;;;;;;;;;20.48;48.46;98933.63;1791758;78;20181;-85
2021/05/31 09:42:13;;;;;;;;;;;;;;;20.79;47.06;98926.63;1792137;78;20207;-85
2021/05/31 09:44:45;;;;;;;;;;;;;;;20.90;43.85;98927.67;1803367;78;20176;-85
2021/05/31 09:47:12;;;;;;;;;;;;;;;20.77;43.08;98925.89;1792123;79;20193;-87
2021/05/31 09:49:39;;;;;;;;;;;;;;;20.49;45.85;98930.02;1789753;79;20142;-84
2021/05/31 09:52:12;;;;;;;;;;;;;;;20.05;44.59;98925.48;1791527;79;20430;-85
2021/05/31 09:54:42;;;;;;;;;;;;;;;20.08;46.13;98927.94;1785026;80;20619;-85
2021/05/31 09:57:21;;;;;;;;;;;;;;;20.17;43.75;98925.14;1769218;80;20175;-84
2021/05/31 09:59:58;;;;;;;;;;;;;;;20.21;42.51;98919.57;1775399;80;20472;-86
2021/05/31 10:02:48;;;;;;;;;;;;;;;20.51;42.41;98917.08;1791572;80;20193;-85
2021/05/31 10:07:55;;;;;;;;;;;;;;;20.59;40.63;98925.83;1784516;80;20183;-85
2021/05/31 10:10:17;;;;;;;;;;;;;;;20.49;42.11;98924.74;1776820;79;20266;-85
2021/05/31 10:12:44;;;;;;;;;;;;;;;19.74;41.86;98920.09;1773771;80;20181;-84
2021/05/31 10:15:12;;;;;;;;;;;;;;;19.85;43.85;98914.45;1794785;79;20198;-85
2021/05/31 10:17:39;;;;;;;;;;;;;;;19.79;44.22;98907.43;1747820;80;20181;-84
2021/05/31 10:20:07;;;;;;;;;;;;;;;19.94;43.26;98911.70;1758878;81;20193;-86
2021/05/31 10:22:35;;;;;;;;;;;;;;;20.20;45.21;98906.47;1760614;80;20217;-85
2021/05/31 10:25:05;;;;;;;;;;;;;;;20.04;43.41;98901.38;1756387;80;20145;-84
2021/05/31 10:27:33;;;;;;;;;;;;;;;20.11;44.38;98896.52;1752389;80;20214;-85
2021/05/31 10:30:01;;;;;;;;;;;;;;;20.17;44.36;98894.78;1776151;80;20163;-84
2021/05/31 10:32:27;;;;;;;;;;;;;;;20.16;44.72;98892.62;1785315;79;20182;-84
2021/05/31 10:34:54;;;;;;;;;;;;;;;20.13;43.06;98891.98;1783596;80;20279;-86
2021/05/31 10:37:24;;;;;;;;;;;;;;;19.99;44.08;98886.31;1783806;79;20183;-84
2021/05/31 10:40:03;;;;;;;;;;;;;;;19.98;43.40;98884.64;1783192;79;20320;-84
2021/05/31 10:42:48;;;;;;;;;;;;;;;19.68;43.72;98875.99;1781607;79;20197;-83
2021/05/31 10:45:24;;;;;;;;;;;;;;;19.61;43.47;98873.37;1792232;78;20159;-84
2021/05/31 10:48:16;;;;;;;;;;;;;;;19.40;42.39;98836.58;1782220;79;20817;-85
2021/05/31 10:50:59;;;;;;;;;;;;;;;19.68;39.89;98864.61;1785564;80;20198;-84
2021/05/31 10:53:31;;;;;;;;;;;;;;;19.38;38.29;98868.79;1785211;80;20174;-87
2021/05/31 10:56:13;;;;;;;;;;;;;;;19.27;38.50;98865.03;1783361;80;20368;-85
2021/05/31 10:58:41;;;;;;;;;;;;;;;19.23;38.40;98868.81;1776223;80;20311;-85
2021/05/31 11:01:10;;;;;;;;;;;;;;;19.26;39.03;98862.03;1782784;80;20142;-85
2021/05/31 11:03:59;;;;;;;;;;;;;;;19.23;37.88;98854.31;1783345;79;20173;-85
2021/05/31 11:06:23;;;;;;;;;;;;;;;19.19;36.80;98850.19;1776623;79;20260;-85
2021/05/31 11:08:55;;;;;;;;;;;;;;;19.33;35.76;98840.55;1748251;81;20215;-85
2021/05/31 11:11:28;;;;;;;;;;;;;;;19.38;36.08;98843.75;1756402;81;20199;-85
2021/05/31 11:13:56;;;;;;;;;;;;;;;19.49;36.97;98834.64;1748661;82;20200;-83
2021/05/31 11:16:24;;;;;;;;;;;;;;;19.55;37.78;98836.87;1743327;81;20231;-83
2021/05/31 11:18:59;;;;;;;;;;;;;;;19.59;38.25;98826.97;1744973;82;20282;-84
2021/05/31 11:21:31;;;;;;;;;;;;;;;19.70;37.99;98832.86;1746302;82;20211;-83
2021/05/31 11:24:06;;;;;;;;;;;;;;;19.91;38.54;98824.83;1747656;82;20211;-86
2021/05/31 11:26:36;;;;;;;;;;;;;;;19.94;38.05;98835.19;1743523;81;20168;-88
2021/05/31 11:29:05;;;;;;;;;;;;;;;20.03;36.64;98817.42;1743879;81;20154;-86
2021/05/31 11:31:32;;;;;;;;;;;;;;;20.10;37.23;98807.77;1742581;80;20204;-80
2021/05/31 11:33:59;;;;;;;;;;;;;;;20.20;37.52;98814.92;1733226;82;20132;-83
2021/05/31 11:36:36;;;;;;;;;;;;;;;20.36;38.03;98816.52;1742597;82;20680;-84
2021/05/31 11:39:08;;;;;;;;;;;;;;;20.41;36.73;98815.24;1742951;82;20202;-86
2021/05/31 11:41:39;;;;;;;;;;;;;;;20.60;36.73;98804.73;1739910;82;20135;-85
2021/05/31 11:44:07;;;;;;;;;;;;;;;20.65;36.45;98810.05;1749390;82;20198;-85
2021/05/31 11:46:56;;;;;;;;;;;;;;;20.85;37.38;98805.98;1744215;82;20138;-84
2021/05/31 11:49:25;;;;;;;;;;;;;;;20.91;37.30;98814.41;1746111;80;20183;-87
2021/05/31 11:52:02;;;;;;;;;;;;;;;21.03;35.60;98808.25;1745456;82;20212;-86
2021/05/31 11:54:33;;;;;;;;;;;;;;;21.14;35.88;98800.36;1745659;82;20179;-86
2021/05/31 11:57:05;;;;;;;;;;;;;;;21.40;36.26;98790.98;1753951;81;20187;-85
2021/05/31 11:59:36;;;;;;;;;;;;;;;21.40;34.99;98798.44;1745648;82;20167;-87
2021/05/31 12:02:06;;;;;;;;;;;;;;;21.47;35.65;98798.87;1742273;81;20171;-87
2021/05/31 12:04:34;;;;;;;;;;;;;;;21.46;35.59;98797.17;1726638;82;20191;-85
2021/05/31 12:07:06;;;;;;;;;;;;;;;21.42;38.76;98794.36;1763612;79;20868;-85
2021/05/31 12:09:32;;;;;;;;;;;;;;;21.43;39.99;98787.67;1804918;78;20267;-84
2021/05/31 12:11:59;;;;;;;;;;;;;;;21.28;41.38;98793.22;1792140;79;20192;-84
2021/05/31 12:14:26;;;;;;;;;;;;;;;21.30;41.43;98796.11;1787670;78;20204;-86
2021/05/31 12:16:54;;;;;;;;;;;;;;;21.24;41.45;98797.89;1785968;78;20134;-86
2021/05/31 12:19:20;;;;;;;;;;;;;;;21.06;42.76;98787.70;1795170;80;20518;-82
2021/05/31 12:21:46;;;;;;;;;;;;;;;21.07;42.93;98787.25;1791035;80;20176;-85
2021/05/31 12:24:12;;;;;;;;;;;;;;;21.21;42.53;98780.47;1708764;80;20190;-86
2021/05/31 12:26:40;;;;;;;;;;;;;;;21.42;42.23;98782.45;1697653;84;20173;-85
2021/05/31 12:29:12;;;;;;;;;;;;;;;21.60;41.02;98772.33;1706385;83;20251;-83
2021/05/31 12:31:38;;;;;;;;;;;;;;;21.91;38.91;98766.03;1690899;84;20239;-83
2021/05/31 12:34:04;;;;;;;;;;;;;;;22.24;40.82;98775.35;1687964;84;20185;-82
2021/05/31 12:36:31;;;;;;;;;;;;;;;22.80;37.01;98772.26;1698995;83;20206;-81
2021/05/31 12:38:58;;;;;;;;;;;;;;;23.11;38.92;98769.31;1689111;84;20178;-85
2021/05/31 12:41:25;;;;;;;;;;;;;;;23.11;35.39;98767.99;1700117;83;20189;-86
2021/05/31 12:43:51;;;;;;;;;;;;;;;23.32;34.99;98764.06;1678853;85;20148;-84
2021/05/31 12:46:19;;;;;;;;;;;;;;;23.11;33.42;98761.36;1717525;82;20227;-84
2021/05/31 12:48:51;;;;;;;;;;;;;;;23.24;36.14;98759.88;1681778;84;20206;-83
2021/05/31 12:51:17;;;;;;;;;;;;;;;23.42;36.81;98753.53;1719901;82;20193;-88
2021/05/31 12:53:45;;;;;;;;;;;;;;;23.31;34.48;98758.87;1717354;82;20152;-88
2021/05/31 12:56:12;;;;;;;;;;;;;;;23.38;33.80;98754.27;1720299;82;20243;-84
2021/05/31 12:58:38;;;;;;;;;;;;;;;23.43;33.93;98753.38;1724833;82;20225;-84
2021/05/31 13:01:05;;;;;;;;;;;;;;;23.54;36.57;98754.31;1717044;83;20241;-85
2021/05/31 13:03:32;;;;;;;;;;;;;;;23.37;36.00;98747.76;1691107;84;20174;-87
2021/05/31 13:06:00;;;;;;;;;;;;;;;23.45;34.75;98745.30;1718996;82;20184;-82
2021/05/31 13:08:38;;;;;;;;;;;;;;;23.39;34.41;98745.32;1717582;83;20269;-84
2021/05/31 13:11:04;;;;;;;;;;;;;;;23.51;36.44;98742.13;1716956;83;20168;-87
2021/05/31 13:13:33;;;;;;;;;;;;;;;23.46;35.11;98744.34;1715154;82;20203;-86
2021/05/31 13:16:00;;;;;;;;;;;;;;;23.49;35.46;98741.91;1712367;82;20196;-85
2021/05/31 13:18:28;;;;;;;;;;;;;;;23.04;33.30;98740.31;1689843;84;20190;-84